Limon High School, Colorado
Current Conditions -  °F | °C
As of 5:55 PM on Friday 24 Oct 2014 (Local Time) from KLIC Reporting Station
Clear Clear  
Wind Chill: 66°   Ceiling: Unl
Heat Index: 66°   Visibility: 9mi
Dew Point: 29°   Wind: 6mph
Humidity: 25%   Direction: 150°SSE
Pressure: 30.17"   Gusts: NA
Location:  39.26873°N, 103.6892°W
Report Text: KLIC 242355Z AUTO 15005KT 9SM CLR 19/M02 A3017 RMK AO2 SLP172 T01891017 10267 20189 53001
Loading
Personal Weather Stations






























Interactive Weather Map
Tropical Storm Tracking
New forecast layout! Learn more

10-Day Weather Forecast

Advertisements
Track Severe Weather on mobile